sensor_id;sensor_type;location;lat;lon;timestamp;temperature;humidity
65544;HTU21D;52173;45.204;39.240;2023-07-31T03:34:54;0.00;0.00
65544;HTU21D;52173;45.204;39.240;2023-07-31T03:37:21;0.00;0.00
65544;HTU21D;52173;45.204;39.240;2023-07-31T03:39:47;0.00;0.00
65544;HTU21D;52173;45.204;39.240;2023-07-31T03:42:13;0.00;0.00
65544;HTU21D;52173;45.204;39.240;2023-07-31T03:44:39;0.00;0.00
65544;HTU21D;52173;45.204;39.240;2023-07-31T03:47:05;0.00;0.00
65544;HTU21D;52173;45.204;39.240;2023-07-31T03:49:31;0.00;0.00
65544;HTU21D;52173;45.204;39.240;2023-07-31T03:51:58;0.00;0.00
65544;HTU21D;52173;45.204;39.240;2023-07-31T03:54:24;0.00;0.00
65544;HTU21D;52173;45.204;39.240;2023-07-31T03:56:50;0.00;0.00
65544;HTU21D;52173;45.204;39.240;2023-07-31T03:59:16;0.00;0.00
65544;HTU21D;52173;45.204;39.240;2023-07-31T04:01:42;0.00;0.00
65544;HTU21D;52173;45.204;39.240;2023-07-31T04:04:08;0.00;0.00
65544;HTU21D;52173;45.204;39.240;2023-07-31T04:06:34;0.00;0.00
65544;HTU21D;52173;45.204;39.240;2023-07-31T04:09:01;0.00;0.00
65544;HTU21D;52173;45.204;39.240;2023-07-31T04:11:27;0.00;0.00
65544;HTU21D;52173;45.204;39.240;2023-07-31T04:13:53;0.00;0.00
65544;HTU21D;52173;45.204;39.240;2023-07-31T04:16:19;0.00;0.00
65544;HTU21D;52173;45.204;39.240;2023-07-31T04:18:45;0.00;0.00
65544;HTU21D;52173;45.204;39.240;2023-07-31T04:21:12;0.00;0.00
65544;HTU21D;52173;45.204;39.240;2023-07-31T04:23:38;0.00;0.00
65544;HTU21D;52173;45.204;39.240;2023-07-31T04:26:04;0.00;0.00
65544;HTU21D;52173;45.204;39.240;2023-07-31T04:28:30;0.00;0.00
65544;HTU21D;52173;45.204;39.240;2023-07-31T04:31:23;0.00;0.00
65544;HTU21D;52173;45.204;39.240;2023-07-31T04:33:49;0.00;0.00
65544;HTU21D;52173;45.204;39.240;2023-07-31T04:36:15;0.00;0.00
65544;HTU21D;52173;45.204;39.240;2023-07-31T04:38:41;0.00;0.00
65544;HTU21D;52173;45.204;39.240;2023-07-31T04:41:07;0.00;0.00
65544;HTU21D;52173;45.204;39.240;2023-07-31T04:43:33;0.00;0.00
65544;HTU21D;52173;45.204;39.240;2023-07-31T04:45:59;0.00;0.00
65544;HTU21D;52173;45.204;39.240;2023-07-31T04:48:25;0.00;0.00
65544;HTU21D;52173;45.204;39.240;2023-07-31T04:50:51;0.00;0.00
65544;HTU21D;52173;45.204;39.240;2023-07-31T04:53:18;0.00;0.00
65544;HTU21D;52173;45.204;39.240;2023-07-31T04:55:44;0.00;0.00
65544;HTU21D;52173;45.204;39.240;2023-07-31T04:58:10;0.00;0.00
65544;HTU21D;52173;45.204;39.240;2023-07-31T05:00:36;0.00;0.00
65544;HTU21D;52173;45.204;39.240;2023-07-31T05:03:03;0.00;0.00
65544;HTU21D;52173;45.204;39.240;2023-07-31T05:05:29;0.00;0.00
65544;HTU21D;52173;45.204;39.240;2023-07-31T05:07:55;0.00;0.00
65544;HTU21D;52173;45.204;39.240;2023-07-31T05:10:21;0.00;0.00
65544;HTU21D;52173;45.204;39.240;2023-07-31T05:12:47;0.00;0.00
65544;HTU21D;52173;45.204;39.240;2023-07-31T05:15:13;0.00;0.00
65544;HTU21D;52173;45.204;39.240;2023-07-31T05:17:39;0.00;0.00
65544;HTU21D;52173;45.204;39.240;2023-07-31T05:20:06;0.00;0.00
65544;HTU21D;52173;45.204;39.240;2023-07-31T05:22:32;0.00;0.00
65544;HTU21D;52173;45.204;39.240;2023-07-31T05:24:58;0.00;0.00
65544;HTU21D;52173;45.204;39.240;2023-07-31T05:27:25;0.00;0.00
65544;HTU21D;52173;45.204;39.240;2023-07-31T05:29:51;0.00;0.00
65544;HTU21D;52173;45.204;39.240;2023-07-31T05:32:17;0.00;0.00
65544;HTU21D;52173;45.204;39.240;2023-07-31T05:34:44;0.00;0.00
65544;HTU21D;52173;45.204;39.240;2023-07-31T05:37:11;0.00;0.00
65544;HTU21D;52173;45.204;39.240;2023-07-31T05:39:41;0.00;0.00
65544;HTU21D;52173;45.204;39.240;2023-07-31T05:42:10;0.00;0.00
65544;HTU21D;52173;45.204;39.240;2023-07-31T05:44:37;0.00;0.00
65544;HTU21D;52173;45.204;39.240;2023-07-31T05:47:03;0.00;0.00
65544;HTU21D;52173;45.204;39.240;2023-07-31T05:49:30;0.00;0.00
65544;HTU21D;52173;45.204;39.240;2023-07-31T05:51:57;0.00;0.00
65544;HTU21D;52173;45.204;39.240;2023-07-31T05:54:23;0.00;0.00
65544;HTU21D;52173;45.204;39.240;2023-07-31T05:56:49;0.00;0.00
65544;HTU21D;52173;45.204;39.240;2023-07-31T05:59:16;0.00;0.00
65544;HTU21D;52173;45.204;39.240;2023-07-31T06:01:42;0.00;0.00
65544;HTU21D;52173;45.204;39.240;2023-07-31T06:04:09;0.00;0.00
65544;HTU21D;52173;45.204;39.240;2023-07-31T06:06:35;0.00;0.00
65544;HTU21D;52173;45.204;39.240;2023-07-31T06:09:01;0.00;0.00
65544;HTU21D;52173;45.204;39.240;2023-07-31T06:11:29;0.00;0.00
65544;HTU21D;52173;45.204;39.240;2023-07-31T06:13:55;0.00;0.00
65544;HTU21D;52173;45.204;39.240;2023-07-31T06:16:22;0.00;0.00
65544;HTU21D;52173;45.204;39.240;2023-07-31T06:18:48;0.00;0.00
65544;HTU21D;52173;45.204;39.240;2023-07-31T06:21:15;0.00;0.00
65544;HTU21D;52173;45.204;39.240;2023-07-31T06:23:41;0.00;0.00
65544;HTU21D;52173;45.204;39.240;2023-07-31T06:26:07;0.00;0.00
65544;HTU21D;52173;45.204;39.240;2023-07-31T06:28:34;0.00;0.00
65544;HTU21D;52173;45.204;39.240;2023-07-31T06:31:01;0.00;0.00
65544;HTU21D;52173;45.204;39.240;2023-07-31T06:33:28;0.00;0.00
65544;HTU21D;52173;45.204;39.240;2023-07-31T06:35:54;0.00;0.00
65544;HTU21D;52173;45.204;39.240;2023-07-31T06:38:25;0.00;0.00
65544;HTU21D;52173;45.204;39.240;2023-07-31T06:40:51;0.00;0.00
65544;HTU21D;52173;45.204;39.240;2023-07-31T06:43:18;0.00;0.00
65544;HTU21D;52173;45.204;39.240;2023-07-31T06:45:44;0.00;0.00
65544;HTU21D;52173;45.204;39.240;2023-07-31T06:48:10;0.00;0.00
65544;HTU21D;52173;45.204;39.240;2023-07-31T06:50:36;0.00;0.00
65544;HTU21D;52173;45.204;39.240;2023-07-31T06:53:03;0.00;0.00
65544;HTU21D;52173;45.204;39.240;2023-07-31T06:55:29;0.00;0.00
65544;HTU21D;52173;45.204;39.240;2023-07-31T06:57:56;0.00;0.00
65544;HTU21D;52173;45.204;39.240;2023-07-31T07:00:22;0.00;0.00
65544;HTU21D;52173;45.204;39.240;2023-07-31T07:02:49;0.00;0.00
65544;HTU21D;52173;45.204;39.240;2023-07-31T07:05:19;0.00;0.00
65544;HTU21D;52173;45.204;39.240;2023-07-31T07:07:45;0.00;0.00
65544;HTU21D;52173;45.204;39.240;2023-07-31T07:10:11;0.00;0.00
65544;HTU21D;52173;45.204;39.240;2023-07-31T07:12:37;0.00;0.00
65544;HTU21D;52173;45.204;39.240;2023-07-31T07:15:04;0.00;0.00
65544;HTU21D;52173;45.204;39.240;2023-07-31T07:17:30;0.00;0.00
65544;HTU21D;52173;45.204;39.240;2023-07-31T07:20:00;0.00;0.00
65544;HTU21D;52173;45.204;39.240;2023-07-31T07:22:26;0.00;0.00
65544;HTU21D;52173;45.204;39.240;2023-07-31T07:24:54;0.00;0.00
65544;HTU21D;52173;45.204;39.240;2023-07-31T07:27:21;0.00;0.00
65544;HTU21D;52173;45.204;39.240;2023-07-31T07:29:47;0.00;0.00
65544;HTU21D;52173;45.204;39.240;2023-07-31T07:32:15;0.00;0.00
65544;HTU21D;52173;45.204;39.240;2023-07-31T07:34:43;0.00;0.00
65544;HTU21D;52173;45.204;39.240;2023-07-31T07:37:09;0.00;0.00
65544;HTU21D;52173;45.204;39.240;2023-07-31T07:39:35;0.00;0.00
65544;HTU21D;52173;45.204;39.240;2023-07-31T07:45:14;0.00;0.00
65544;HTU21D;52173;45.204;39.240;2023-07-31T07:47:41;0.00;0.00
65544;HTU21D;52173;45.204;39.240;2023-07-31T07:50:07;0.00;0.00
65544;HTU21D;52173;45.204;39.240;2023-07-31T07:52:34;0.00;0.00
65544;HTU21D;52173;45.204;39.240;2023-07-31T07:55:00;0.00;0.00
65544;HTU21D;52173;45.204;39.240;2023-07-31T07:57:26;0.00;0.00
65544;HTU21D;52173;45.204;39.240;2023-07-31T07:59:53;0.00;0.00
65544;HTU21D;52173;45.204;39.240;2023-07-31T08:02:19;0.00;0.00
65544;HTU21D;52173;45.204;39.240;2023-07-31T08:04:45;0.00;0.00
65544;HTU21D;52173;45.204;39.240;2023-07-31T08:07:11;0.00;0.00
65544;HTU21D;52173;45.204;39.240;2023-07-31T08:09:38;0.00;0.00
65544;HTU21D;52173;45.204;39.240;2023-07-31T08:12:05;0.00;0.00
65544;HTU21D;52173;45.204;39.240;2023-07-31T08:14:31;0.00;0.00
65544;HTU21D;52173;45.204;39.240;2023-07-31T08:16:59;0.00;0.00
65544;HTU21D;52173;45.204;39.240;2023-07-31T08:19:27;0.00;0.00
65544;HTU21D;52173;45.204;39.240;2023-07-31T08:21:54;0.00;0.00
65544;HTU21D;52173;45.204;39.240;2023-07-31T08:24:20;0.00;0.00
65544;HTU21D;52173;45.204;39.240;2023-07-31T08:26:47;0.00;0.00
65544;HTU21D;52173;45.204;39.240;2023-07-31T08:29:14;0.00;0.00
65544;HTU21D;52173;45.204;39.240;2023-07-31T08:31:40;0.00;0.00
65544;HTU21D;52173;45.204;39.240;2023-07-31T08:34:06;0.00;0.00
65544;HTU21D;52173;45.204;39.240;2023-07-31T08:36:34;0.00;0.00
65544;HTU21D;52173;45.204;39.240;2023-07-31T08:39:00;0.00;0.00
65544;HTU21D;52173;45.204;39.240;2023-07-31T08:41:27;0.00;0.00
65544;HTU21D;52173;45.204;39.240;2023-07-31T08:43:55;0.00;0.00
65544;HTU21D;52173;45.204;39.240;2023-07-31T08:46:22;0.00;0.00
65544;HTU21D;52173;45.204;39.240;2023-07-31T08:48:50;0.00;0.00
65544;HTU21D;52173;45.204;39.240;2023-07-31T08:51:17;0.00;0.00
65544;HTU21D;52173;45.204;39.240;2023-07-31T08:53:43;0.00;0.00
65544;HTU21D;52173;45.204;39.240;2023-07-31T08:56:11;0.00;0.00
65544;HTU21D;52173;45.204;39.240;2023-07-31T08:58:40;0.00;0.00
65544;HTU21D;52173;45.204;39.240;2023-07-31T09:01:07;0.00;0.00
65544;HTU21D;52173;45.204;39.240;2023-07-31T09:03:34;0.00;0.00
65544;HTU21D;52173;45.204;39.240;2023-07-31T09:06:02;0.00;0.00
65544;HTU21D;52173;45.204;39.240;2023-07-31T09:08:30;0.00;0.00
65544;HTU21D;52173;45.204;39.240;2023-07-31T09:11:02;0.00;0.00
65544;HTU21D;52173;45.204;39.240;2023-07-31T09:13:31;0.00;0.00
65544;HTU21D;52173;45.204;39.240;2023-07-31T09:15:58;0.00;0.00
65544;HTU21D;52173;45.204;39.240;2023-07-31T09:18:24;0.00;0.00
65544;HTU21D;52173;45.204;39.240;2023-07-31T09:21:06;0.00;0.00
65544;HTU21D;52173;45.204;39.240;2023-07-31T09:23:44;0.00;0.00
65544;HTU21D;52173;45.204;39.240;2023-07-31T09:26:11;0.00;0.00
65544;HTU21D;52173;45.204;39.240;2023-07-31T09:28:37;0.00;0.00
65544;HTU21D;52173;45.204;39.240;2023-07-31T09:31:03;0.00;0.00
65544;HTU21D;52173;45.204;39.240;2023-07-31T09:33:30;0.00;0.00
65544;HTU21D;52173;45.204;39.240;2023-07-31T09:35:58;0.00;0.00
65544;HTU21D;52173;45.204;39.240;2023-07-31T09:38:26;0.00;0.00
65544;HTU21D;52173;45.204;39.240;2023-07-31T09:40:52;0.00;0.00
65544;HTU21D;52173;45.204;39.240;2023-07-31T09:43:20;0.00;0.00
65544;HTU21D;52173;45.204;39.240;2023-07-31T09:45:47;0.00;0.00
65544;HTU21D;52173;45.204;39.240;2023-07-31T09:48:17;0.00;0.00
65544;HTU21D;52173;45.204;39.240;2023-07-31T09:50:45;0.00;0.00
65544;HTU21D;52173;45.204;39.240;2023-07-31T09:53:12;0.00;0.00
65544;HTU21D;52173;45.204;39.240;2023-07-31T09:55:40;0.00;0.00
65544;HTU21D;52173;45.204;39.240;2023-07-31T09:58:08;0.00;0.00
65544;HTU21D;52173;45.204;39.240;2023-07-31T10:00:35;0.00;0.00
65544;HTU21D;52173;45.204;39.240;2023-07-31T10:03:04;0.00;0.00
65544;HTU21D;52173;45.204;39.240;2023-07-31T10:05:36;0.00;0.00
65544;HTU21D;52173;45.204;39.240;2023-07-31T10:08:03;0.00;0.00
65544;HTU21D;52173;45.204;39.240;2023-07-31T10:10:30;0.00;0.00
65544;HTU21D;52173;45.204;39.240;2023-07-31T10:12:57;0.00;0.00
65544;HTU21D;52173;45.204;39.240;2023-07-31T10:15:24;0.00;0.00
65544;HTU21D;52173;45.204;39.240;2023-07-31T10:17:51;0.00;0.00
65544;HTU21D;52173;45.204;39.240;2023-07-31T10:20:18;0.00;0.00
65544;HTU21D;52173;45.204;39.240;2023-07-31T10:22:44;42.69;23.09
65544;HTU21D;52173;45.204;39.240;2023-07-31T10:25:15;41.62;24.67
65544;HTU21D;52173;45.204;39.240;2023-07-31T10:27:43;40.48;26.11
65544;HTU21D;52173;45.204;39.240;2023-07-31T10:30:15;39.48;26.75
65544;HTU21D;52173;45.204;39.240;2023-07-31T10:32:43;38.74;27.78
65544;HTU21D;52173;45.204;39.240;2023-07-31T10:35:10;38.26;29.16
65544;HTU21D;52173;45.204;39.240;2023-07-31T10:37:41;37.88;29.57
65544;HTU21D;52173;45.204;39.240;2023-07-31T10:40:25;37.44;29.66
65544;HTU21D;52173;45.204;39.240;2023-07-31T10:48:05;36.33;31.07
65544;HTU21D;52173;45.204;39.240;2023-07-31T10:50:37;36.25;31.39
65544;HTU21D;52173;45.204;39.240;2023-07-31T10:53:04;36.23;31.58
65544;HTU21D;52173;45.204;39.240;2023-07-31T10:55:40;36.18;31.12
65544;HTU21D;52173;45.204;39.240;2023-07-31T10:58:10;36.10;31.51
65544;HTU21D;52173;45.204;39.240;2023-07-31T11:00:42;35.96;32.31
65544;HTU21D;52173;45.204;39.240;2023-07-31T11:03:14;35.85;32.70
65544;HTU21D;52173;45.204;39.240;2023-07-31T11:08:26;35.72;32.82
65544;HTU21D;52173;45.204;39.240;2023-07-31T11:13:29;35.70;32.42
65544;HTU21D;52173;45.204;39.240;2023-07-31T11:15:55;35.68;31.86
65544;HTU21D;52173;45.204;39.240;2023-07-31T11:18:22;35.59;31.86
65544;HTU21D;52173;45.204;39.240;2023-07-31T11:20:48;35.44;32.56
65544;HTU21D;52173;45.204;39.240;2023-07-31T11:23:16;35.33;33.17
65544;HTU21D;52173;45.204;39.240;2023-07-31T11:25:43;35.28;33.14
65544;HTU21D;52173;45.204;39.240;2023-07-31T11:28:11;35.28;32.91
65544;HTU21D;52173;45.204;39.240;2023-07-31T11:30:38;35.23;33.12
65544;HTU21D;52173;45.204;39.240;2023-07-31T11:33:07;35.20;33.99
65544;HTU21D;52173;45.204;39.240;2023-07-31T11:35:35;35.11;34.16
65544;HTU21D;52173;45.204;39.240;2023-07-31T11:38:02;34.96;34.20
65544;HTU21D;52173;45.204;39.240;2023-07-31T11:40:28;34.88;34.26
65544;HTU21D;52173;45.204;39.240;2023-07-31T11:42:56;34.85;34.15
65544;HTU21D;52173;45.204;39.240;2023-07-31T11:45:25;34.86;33.75
65544;HTU21D;52173;45.204;39.240;2023-07-31T11:47:54;34.83;33.68
65544;HTU21D;52173;45.204;39.240;2023-07-31T11:50:22;34.80;33.33
65544;HTU21D;52173;45.204;39.240;2023-07-31T11:52:54;34.76;33.63
65544;HTU21D;52173;45.204;39.240;2023-07-31T11:55:22;34.75;33.96
65544;HTU21D;52173;45.204;39.240;2023-07-31T11:57:48;34.73;33.67
65544;HTU21D;52173;45.204;39.240;2023-07-31T12:00:15;34.69;33.52
65544;HTU21D;52173;45.204;39.240;2023-07-31T12:02:42;34.67;34.25
65544;HTU21D;52173;45.204;39.240;2023-07-31T12:05:12;34.65;34.19
65544;HTU21D;52173;45.204;39.240;2023-07-31T12:07:46;34.63;34.27
65544;HTU21D;52173;45.204;39.240;2023-07-31T12:10:30;34.54;34.37
65544;HTU21D;52173;45.204;39.240;2023-07-31T12:13:05;34.48;34.20
65544;HTU21D;52173;45.204;39.240;2023-07-31T12:15:33;34.42;34.08
65544;HTU21D;52173;45.204;39.240;2023-07-31T12:18:00;34.39;36.96
65544;HTU21D;52173;45.204;39.240;2023-07-31T12:20:26;0.00;0.00
65544;HTU21D;52173;45.204;39.240;2023-07-31T12:22:52;0.00;0.00
65544;HTU21D;52173;45.204;39.240;2023-07-31T12:25:21;0.00;0.00
65544;HTU21D;52173;45.204;39.240;2023-07-31T12:27:50;0.00;0.00
65544;HTU21D;52173;45.204;39.240;2023-07-31T12:30:31;0.00;0.00
65544;HTU21D;52173;45.204;39.240;2023-07-31T12:32:58;0.00;0.00
65544;HTU21D;52173;45.204;39.240;2023-07-31T12:35:35;0.00;0.00
65544;HTU21D;52173;45.204;39.240;2023-07-31T12:38:02;0.00;0.00
65544;HTU21D;52173;45.204;39.240;2023-07-31T12:40:28;0.00;0.00
65544;HTU21D;52173;45.204;39.240;2023-07-31T12:42:54;0.00;0.00
65544;HTU21D;52173;45.204;39.240;2023-07-31T12:45:20;0.00;0.00
65544;HTU21D;52173;45.204;39.240;2023-07-31T12:47:47;0.00;0.00
65544;HTU21D;52173;45.204;39.240;2023-07-31T12:50:13;0.00;0.00
65544;HTU21D;52173;45.204;39.240;2023-07-31T12:52:39;0.00;0.00
65544;HTU21D;52173;45.204;39.240;2023-07-31T12:55:05;0.00;0.00
65544;HTU21D;52173;45.204;39.240;2023-07-31T12:57:32;0.00;0.00
65544;HTU21D;52173;45.204;39.240;2023-07-31T12:59:58;0.00;0.00
65544;HTU21D;52173;45.204;39.240;2023-07-31T13:02:24;0.00;0.00
65544;HTU21D;52173;45.204;39.240;2023-07-31T13:04:50;0.00;0.00
65544;HTU21D;52173;45.204;39.240;2023-07-31T13:07:17;0.00;0.00
65544;HTU21D;52173;45.204;39.240;2023-07-31T13:09:43;0.00;0.00
65544;HTU21D;52173;45.204;39.240;2023-07-31T13:12:09;0.00;0.00
65544;HTU21D;52173;45.204;39.240;2023-07-31T13:14:36;0.00;0.00
65544;HTU21D;52173;45.204;39.240;2023-07-31T13:17:02;0.00;0.00
65544;HTU21D;52173;45.204;39.240;2023-07-31T13:19:29;0.00;0.00
65544;HTU21D;52173;45.204;39.240;2023-07-31T13:21:55;0.00;0.00
65544;HTU21D;52173;45.204;39.240;2023-07-31T13:24:21;0.00;0.00
65544;HTU21D;52173;45.204;39.240;2023-07-31T13:26:47;0.00;0.00
65544;HTU21D;52173;45.204;39.240;2023-07-31T13:29:13;0.00;0.00
65544;HTU21D;52173;45.204;39.240;2023-07-31T13:31:39;0.00;0.00
65544;HTU21D;52173;45.204;39.240;2023-07-31T13:34:11;0.00;0.00
65544;HTU21D;52173;45.204;39.240;2023-07-31T13:36:37;0.00;0.00
65544;HTU21D;52173;45.204;39.240;2023-07-31T13:39:04;0.00;0.00
65544;HTU21D;52173;45.204;39.240;2023-07-31T13:41:30;0.00;0.00
65544;HTU21D;52173;45.204;39.240;2023-07-31T13:43:56;0.00;0.00
65544;HTU21D;52173;45.204;39.240;2023-07-31T13:46:22;0.00;0.00
65544;HTU21D;52173;45.204;39.240;2023-07-31T13:48:48;0.00;0.00
65544;HTU21D;52173;45.204;39.240;2023-07-31T13:51:15;0.00;0.00
65544;HTU21D;52173;45.204;39.240;2023-07-31T13:53:42;0.00;0.00
65544;HTU21D;52173;45.204;39.240;2023-07-31T13:56:14;0.00;0.00
65544;HTU21D;52173;45.204;39.240;2023-07-31T13:58:44;0.00;0.00
65544;HTU21D;52173;45.204;39.240;2023-07-31T14:01:11;0.00;0.00
65544;HTU21D;52173;45.204;39.240;2023-07-31T14:03:38;0.00;0.00
65544;HTU21D;52173;45.204;39.240;2023-07-31T14:06:06;0.00;0.00
65544;HTU21D;52173;45.204;39.240;2023-07-31T14:08:32;0.00;0.00
65544;HTU21D;52173;45.204;39.240;2023-07-31T14:10:59;0.00;0.00
65544;HTU21D;52173;45.204;39.240;2023-07-31T14:13:26;0.00;0.00
65544;HTU21D;52173;45.204;39.240;2023-07-31T14:15:53;0.00;0.00
65544;HTU21D;52173;45.204;39.240;2023-07-31T14:18:19;0.00;0.00
65544;HTU21D;52173;45.204;39.240;2023-07-31T14:20:46;0.00;0.00
65544;HTU21D;52173;45.204;39.240;2023-07-31T14:23:12;0.00;0.00
65544;HTU21D;52173;45.204;39.240;2023-07-31T14:25:39;0.00;0.00
65544;HTU21D;52173;45.204;39.240;2023-07-31T14:28:05;0.00;0.00
65544;HTU21D;52173;45.204;39.240;2023-07-31T14:30:32;0.00;0.00
65544;HTU21D;52173;45.204;39.240;2023-07-31T14:32:58;0.00;0.00
65544;HTU21D;52173;45.204;39.240;2023-07-31T14:35:28;0.00;0.00
65544;HTU21D;52173;45.204;39.240;2023-07-31T14:37:54;0.00;0.00
65544;HTU21D;52173;45.204;39.240;2023-07-31T14:40:20;0.00;0.00
65544;HTU21D;52173;45.204;39.240;2023-07-31T14:42:47;0.00;0.00
65544;HTU21D;52173;45.204;39.240;2023-07-31T14:45:13;0.00;0.00
65544;HTU21D;52173;45.204;39.240;2023-07-31T14:47:40;0.00;0.00
65544;HTU21D;52173;45.204;39.240;2023-07-31T14:50:06;0.00;0.00
65544;HTU21D;52173;45.204;39.240;2023-07-31T14:52:33;0.00;0.00
65544;HTU21D;52173;45.204;39.240;2023-07-31T14:54:59;0.00;0.00
65544;HTU21D;52173;45.204;39.240;2023-07-31T14:57:25;0.00;0.00
65544;HTU21D;52173;45.204;39.240;2023-07-31T14:59:51;0.00;0.00
65544;HTU21D;52173;45.204;39.240;2023-07-31T15:02:18;0.00;0.00
65544;HTU21D;52173;45.204;39.240;2023-07-31T15:04:44;0.00;0.00
65544;HTU21D;52173;45.204;39.240;2023-07-31T15:07:10;0.00;0.00
65544;HTU21D;52173;45.204;39.240;2023-07-31T15:09:36;0.00;0.00
65544;HTU21D;52173;45.204;39.240;2023-07-31T15:12:02;0.00;0.00
65544;HTU21D;52173;45.204;39.240;2023-07-31T15:14:29;0.00;0.00
65544;HTU21D;52173;45.204;39.240;2023-07-31T15:16:57;0.00;0.00
65544;HTU21D;52173;45.204;39.240;2023-07-31T15:19:23;0.00;0.00
65544;HTU21D;52173;45.204;39.240;2023-07-31T15:21:49;0.00;0.00
65544;HTU21D;52173;45.204;39.240;2023-07-31T15:24:16;0.00;0.00
65544;HTU21D;52173;45.204;39.240;2023-07-31T15:26:42;0.00;0.00
65544;HTU21D;52173;45.204;39.240;2023-07-31T15:29:08;0.00;0.00
65544;HTU21D;52173;45.204;39.240;2023-07-31T15:31:35;0.00;0.00
65544;HTU21D;52173;45.204;39.240;2023-07-31T15:34:02;0.00;0.00
65544;HTU21D;52173;45.204;39.240;2023-07-31T15:36:28;0.00;0.00
65544;HTU21D;52173;45.204;39.240;2023-07-31T15:38:54;0.00;0.00
65544;HTU21D;52173;45.204;39.240;2023-07-31T15:41:20;0.00;0.00
65544;HTU21D;52173;45.204;39.240;2023-07-31T15:43:46;0.00;0.00
65544;HTU21D;52173;45.204;39.240;2023-07-31T15:46:13;0.00;0.00
65544;HTU21D;52173;45.204;39.240;2023-07-31T15:48:39;0.00;0.00
65544;HTU21D;52173;45.204;39.240;2023-07-31T15:51:05;0.00;0.00
65544;HTU21D;52173;45.204;39.240;2023-07-31T15:53:32;0.00;0.00
65544;HTU21D;52173;45.204;39.240;2023-07-31T15:55:58;0.00;0.00
65544;HTU21D;52173;45.204;39.240;2023-07-31T15:58:24;0.00;0.00
65544;HTU21D;52173;45.204;39.240;2023-07-31T16:00:50;0.00;0.00
65544;HTU21D;52173;45.204;39.240;2023-07-31T16:03:16;0.00;0.00
65544;HTU21D;52173;45.204;39.240;2023-07-31T16:05:42;0.00;0.00
65544;HTU21D;52173;45.204;39.240;2023-07-31T16:08:09;0.00;0.00
65544;HTU21D;52173;45.204;39.240;2023-07-31T16:10:35;0.00;0.00
65544;HTU21D;52173;45.204;39.240;2023-07-31T16:13:01;0.00;0.00
65544;HTU21D;52173;45.204;39.240;2023-07-31T16:15:29;0.00;0.00
65544;HTU21D;52173;45.204;39.240;2023-07-31T16:17:55;0.00;0.00
65544;HTU21D;52173;45.204;39.240;2023-07-31T16:20:23;0.00;0.00
65544;HTU21D;52173;45.204;39.240;2023-07-31T16:22:50;0.00;0.00
65544;HTU21D;52173;45.204;39.240;2023-07-31T16:25:16;0.00;0.00
65544;HTU21D;52173;45.204;39.240;2023-07-31T16:27:47;0.00;0.00
65544;HTU21D;52173;45.204;39.240;2023-07-31T16:30:13;0.00;0.00
65544;HTU21D;52173;45.204;39.240;2023-07-31T16:32:39;0.00;0.00
65544;HTU21D;52173;45.204;39.240;2023-07-31T16:35:06;0.00;0.00
65544;HTU21D;52173;45.204;39.240;2023-07-31T16:37:33;0.00;0.00
65544;HTU21D;52173;45.204;39.240;2023-07-31T16:39:59;0.00;0.00
65544;HTU21D;52173;45.204;39.240;2023-07-31T16:42:25;0.00;0.00
65544;HTU21D;52173;45.204;39.240;2023-07-31T16:44:51;0.00;0.00
65544;HTU21D;52173;45.204;39.240;2023-07-31T16:47:18;0.00;0.00
65544;HTU21D;52173;45.204;39.240;2023-07-31T16:49:44;0.00;0.00
65544;HTU21D;52173;45.204;39.240;2023-07-31T16:52:10;0.00;0.00
65544;HTU21D;52173;45.204;39.240;2023-07-31T16:54:36;0.00;0.00
65544;HTU21D;52173;45.204;39.240;2023-07-31T16:57:03;0.00;0.00
65544;HTU21D;52173;45.204;39.240;2023-07-31T16:59:29;0.00;0.00
65544;HTU21D;52173;45.204;39.240;2023-07-31T17:01:55;0.00;0.00
65544;HTU21D;52173;45.204;39.240;2023-07-31T17:04:25;0.00;0.00
65544;HTU21D;52173;45.204;39.240;2023-07-31T17:06:51;0.00;0.00
65544;HTU21D;52173;45.204;39.240;2023-07-31T17:09:17;0.00;0.00
65544;HTU21D;52173;45.204;39.240;2023-07-31T17:11:45;0.00;0.00
65544;HTU21D;52173;45.204;39.240;2023-07-31T17:14:11;0.00;0.00
65544;HTU21D;52173;45.204;39.240;2023-07-31T17:16:37;0.00;0.00
65544;HTU21D;52173;45.204;39.240;2023-07-31T17:19:04;0.00;0.00
65544;HTU21D;52173;45.204;39.240;2023-07-31T17:21:30;0.00;0.00
65544;HTU21D;52173;45.204;39.240;2023-07-31T17:23:56;0.00;0.00
65544;HTU21D;52173;45.204;39.240;2023-07-31T17:26:22;0.00;0.00
65544;HTU21D;52173;45.204;39.240;2023-07-31T17:28:49;0.00;0.00
65544;HTU21D;52173;45.204;39.240;2023-07-31T17:31:16;0.00;0.00
65544;HTU21D;52173;45.204;39.240;2023-07-31T17:33:42;0.00;0.00
65544;HTU21D;52173;45.204;39.240;2023-07-31T17:36:10;0.00;0.00
65544;HTU21D;52173;45.204;39.240;2023-07-31T17:38:36;0.00;0.00
65544;HTU21D;52173;45.204;39.240;2023-07-31T17:41:02;0.00;0.00
65544;HTU21D;52173;45.204;39.240;2023-07-31T17:43:28;0.00;0.00
65544;HTU21D;52173;45.204;39.240;2023-07-31T17:45:55;0.00;0.00
65544;HTU21D;52173;45.204;39.240;2023-07-31T17:48:21;0.00;0.00
65544;HTU21D;52173;45.204;39.240;2023-07-31T17:50:53;0.00;0.00
65544;HTU21D;52173;45.204;39.240;2023-07-31T17:53:20;0.00;0.00
65544;HTU21D;52173;45.204;39.240;2023-07-31T17:55:47;0.00;0.00
65544;HTU21D;52173;45.204;39.240;2023-07-31T17:58:13;0.00;0.00
65544;HTU21D;52173;45.204;39.240;2023-07-31T18:00:41;0.00;0.00
65544;HTU21D;52173;45.204;39.240;2023-07-31T18:03:29;0.00;0.00
65544;HTU21D;52173;45.204;39.240;2023-07-31T18:05:55;0.00;0.00
65544;HTU21D;52173;45.204;39.240;2023-07-31T18:08:21;0.00;0.00
65544;HTU21D;52173;45.204;39.240;2023-07-31T18:11:16;0.00;0.00
65544;HTU21D;52173;45.204;39.240;2023-07-31T18:27:48;0.00;0.00
65544;HTU21D;52173;45.204;39.240;2023-07-31T18:30:14;0.00;0.00
65544;HTU21D;52173;45.204;39.240;2023-07-31T18:32:42;0.00;0.00
65544;HTU21D;52173;45.204;39.240;2023-07-31T19:53:29;0.00;0.00
65544;HTU21D;52173;45.204;39.240;2023-07-31T19:58:47;0.00;0.00
65544;HTU21D;52173;45.204;39.240;2023-07-31T20:01:32;0.00;0.00
65544;HTU21D;52173;45.204;39.240;2023-07-31T20:04:08;0.00;0.00
65544;HTU21D;52173;45.204;39.240;2023-07-31T20:09:43;0.00;0.00
65544;HTU21D;52173;45.204;39.240;2023-07-31T20:12:23;0.00;0.00
65544;HTU21D;52173;45.204;39.240;2023-07-31T20:14:54;0.00;0.00
65544;HTU21D;52173;45.204;39.240;2023-07-31T20:17:21;0.00;0.00
65544;HTU21D;52173;45.204;39.240;2023-07-31T20:19:56;0.00;0.00
65544;HTU21D;52173;45.204;39.240;2023-07-31T20:22:22;0.00;0.00
65544;HTU21D;52173;45.204;39.240;2023-07-31T20:24:59;0.00;0.00
65544;HTU21D;52173;45.204;39.240;2023-07-31T20:27:34;0.00;0.00
65544;HTU21D;52173;45.204;39.240;2023-07-31T20:30:12;0.00;0.00
65544;HTU21D;52173;45.204;39.240;2023-07-31T20:32:41;0.00;0.00
65544;HTU21D;52173;45.204;39.240;2023-07-31T20:35:20;0.00;0.00
65544;HTU21D;52173;45.204;39.240;2023-07-31T20:40:57;0.00;0.00
65544;HTU21D;52173;45.204;39.240;2023-07-31T20:43:35;0.00;0.00
65544;HTU21D;52173;45.204;39.240;2023-07-31T20:46:01;0.00;0.00
65544;HTU21D;52173;45.204;39.240;2023-07-31T20:48:53;0.00;0.00
65544;HTU21D;52173;45.204;39.240;2023-07-31T20:51:32;0.00;0.00
